sensor_id;sensor_type;location;lat;lon;timestamp;P1;durP1;ratioP1;P2;durP2;ratioP2
22152;SDS011;11242;50.536;12.688;2023-09-18T00:00:46;9.80;;;7.47;;
22152;SDS011;11242;50.536;12.688;2023-09-18T00:03:16;8.55;;;7.63;;
22152;SDS011;11242;50.536;12.688;2023-09-18T00:05:48;8.20;;;7.40;;
22152;SDS011;11242;50.536;12.688;2023-09-18T00:08:15;8.18;;;7.38;;
22152;SDS011;11242;50.536;12.688;2023-09-18T00:10:41;9.40;;;6.60;;
22152;SDS011;11242;50.536;12.688;2023-09-18T00:13:07;9.52;;;7.43;;
22152;SDS011;11242;50.536;12.688;2023-09-18T00:15:33;7.72;;;7.03;;
22152;SDS011;11242;50.536;12.688;2023-09-18T00:17:59;7.45;;;6.70;;
22152;SDS011;11242;50.536;12.688;2023-09-18T00:20:24;8.13;;;7.03;;
22152;SDS011;11242;50.536;12.688;2023-09-18T00:22:53;9.70;;;7.70;;
22152;SDS011;11242;50.536;12.688;2023-09-18T00:25:19;8.60;;;7.80;;
22152;SDS011;11242;50.536;12.688;2023-09-18T00:27:45;9.63;;;7.90;;
22152;SDS011;11242;50.536;12.688;2023-09-18T00:30:11;7.82;;;7.13;;
22152;SDS011;11242;50.536;12.688;2023-09-18T00:32:36;9.43;;;6.28;;
22152;SDS011;11242;50.536;12.688;2023-09-18T00:35:02;6.95;;;6.07;;
22152;SDS011;11242;50.536;12.688;2023-09-18T00:37:28;7.53;;;6.22;;
22152;SDS011;11242;50.536;12.688;2023-09-18T00:39:54;9.85;;;8.15;;
22152;SDS011;11242;50.536;12.688;2023-09-18T00:42:20;9.23;;;7.13;;
22152;SDS011;11242;50.536;12.688;2023-09-18T00:44:47;12.52;;;7.35;;
22152;SDS011;11242;50.536;12.688;2023-09-18T00:47:14;9.82;;;7.32;;
22152;SDS011;11242;50.536;12.688;2023-09-18T00:49:40;9.25;;;7.28;;
22152;SDS011;11242;50.536;12.688;2023-09-18T00:52:08;7.82;;;7.03;;
22152;SDS011;11242;50.536;12.688;2023-09-18T00:54:35;7.95;;;7.15;;
22152;SDS011;11242;50.536;12.688;2023-09-18T00:57:02;11.00;;;6.70;;
22152;SDS011;11242;50.536;12.688;2023-09-18T00:59:29;7.55;;;6.80;;
22152;SDS011;11242;50.536;12.688;2023-09-18T01:01:56;7.25;;;6.55;;
22152;SDS011;11242;50.536;12.688;2023-09-18T01:04:21;8.05;;;7.25;;
22152;SDS011;11242;50.536;12.688;2023-09-18T01:06:50;7.10;;;6.40;;
22152;SDS011;11242;50.536;12.688;2023-09-18T01:09:18;7.05;;;5.68;;
22152;SDS011;11242;50.536;12.688;2023-09-18T01:11:50;5.60;;;5.05;;
22152;SDS011;11242;50.536;12.688;2023-09-18T01:14:40;5.97;;;4.90;;
22152;SDS011;11242;50.536;12.688;2023-09-18T01:17:13;6.63;;;5.13;;
22152;SDS011;11242;50.536;12.688;2023-09-18T01:19:41;8.90;;;5.30;;
22152;SDS011;11242;50.536;12.688;2023-09-18T01:22:12;5.53;;;5.03;;
22152;SDS011;11242;50.536;12.688;2023-09-18T01:24:40;6.00;;;5.22;;
22152;SDS011;11242;50.536;12.688;2023-09-18T01:27:10;6.10;;;5.50;;
22152;SDS011;11242;50.536;12.688;2023-09-18T01:29:42;7.55;;;5.00;;
22152;SDS011;11242;50.536;12.688;2023-09-18T01:32:08;5.35;;;4.85;;
22152;SDS011;11242;50.536;12.688;2023-09-18T01:34:37;5.80;;;5.20;;
22152;SDS011;11242;50.536;12.688;2023-09-18T01:37:07;6.00;;;5.00;;
22152;SDS011;11242;50.536;12.688;2023-09-18T01:39:34;5.80;;;5.30;;
22152;SDS011;11242;50.536;12.688;2023-09-18T01:42:02;6.72;;;5.05;;
22152;SDS011;11242;50.536;12.688;2023-09-18T01:44:30;6.47;;;5.40;;
22152;SDS011;11242;50.536;12.688;2023-09-18T01:47:00;7.13;;;5.45;;
22152;SDS011;11242;50.536;12.688;2023-09-18T01:49:34;6.35;;;5.50;;
22152;SDS011;11242;50.536;12.688;2023-09-18T01:52:01;8.27;;;5.38;;
22152;SDS011;11242;50.536;12.688;2023-09-18T01:54:28;5.93;;;5.43;;
22152;SDS011;11242;50.536;12.688;2023-09-18T01:56:55;7.40;;;5.63;;
22152;SDS011;11242;50.536;12.688;2023-09-18T01:59:21;6.35;;;5.75;;
22152;SDS011;11242;50.536;12.688;2023-09-18T02:01:47;7.05;;;5.28;;
22152;SDS011;11242;50.536;12.688;2023-09-18T02:04:13;5.65;;;5.15;;
22152;SDS011;11242;50.536;12.688;2023-09-18T02:06:39;5.50;;;5.00;;
22152;SDS011;11242;50.536;12.688;2023-09-18T02:09:05;6.10;;;5.50;;
22152;SDS011;11242;50.536;12.688;2023-09-18T02:11:35;6.13;;;5.15;;
22152;SDS011;11242;50.536;12.688;2023-09-18T02:14:04;5.95;;;4.75;;
22152;SDS011;11242;50.536;12.688;2023-09-18T02:16:30;5.82;;;5.00;;
22152;SDS011;11242;50.536;12.688;2023-09-18T02:18:57;5.65;;;5.10;;
22152;SDS011;11242;50.536;12.688;2023-09-18T02:21:23;5.18;;;4.70;;
22152;SDS011;11242;50.536;12.688;2023-09-18T02:23:49;5.20;;;4.70;;
22152;SDS011;11242;50.536;12.688;2023-09-18T02:26:18;4.82;;;4.43;;
22152;SDS011;11242;50.536;12.688;2023-09-18T02:28:45;5.65;;;4.85;;
22152;SDS011;11242;50.536;12.688;2023-09-18T02:31:12;4.78;;;4.38;;
22152;SDS011;11242;50.536;12.688;2023-09-18T02:33:38;5.22;;;4.72;;
22152;SDS011;11242;50.536;12.688;2023-09-18T02:36:04;6.10;;;5.10;;
22152;SDS011;11242;50.536;12.688;2023-09-18T02:38:30;5.78;;;4.60;;
22152;SDS011;11242;50.536;12.688;2023-09-18T02:40:56;6.55;;;4.63;;
22152;SDS011;11242;50.536;12.688;2023-09-18T02:43:22;5.93;;;4.35;;
22152;SDS011;11242;50.536;12.688;2023-09-18T02:45:50;5.32;;;4.60;;
22152;SDS011;11242;50.536;12.688;2023-09-18T02:48:16;6.40;;;4.70;;
22152;SDS011;11242;50.536;12.688;2023-09-18T02:50:42;9.85;;;4.60;;
22152;SDS011;11242;50.536;12.688;2023-09-18T02:53:20;5.10;;;4.63;;
22152;SDS011;11242;50.536;12.688;2023-09-18T02:55:50;5.18;;;4.78;;
22152;SDS011;11242;50.536;12.688;2023-09-18T02:58:17;4.90;;;4.50;;
22152;SDS011;11242;50.536;12.688;2023-09-18T03:00:48;5.55;;;4.70;;
22152;SDS011;11242;50.536;12.688;2023-09-18T03:03:16;5.22;;;4.72;;
22152;SDS011;11242;50.536;12.688;2023-09-18T03:05:42;5.40;;;4.50;;
22152;SDS011;11242;50.536;12.688;2023-09-18T03:08:09;5.22;;;4.72;;
22152;SDS011;11242;50.536;12.688;2023-09-18T03:10:37;6.13;;;4.70;;
22152;SDS011;11242;50.536;12.688;2023-09-18T03:13:05;4.82;;;4.43;;
22152;SDS011;11242;50.536;12.688;2023-09-18T03:15:31;5.15;;;4.72;;
22152;SDS011;11242;50.536;12.688;2023-09-18T03:17:58;4.72;;;4.32;;
22152;SDS011;11242;50.536;12.688;2023-09-18T03:20:27;6.43;;;4.68;;
22152;SDS011;11242;50.536;12.688;2023-09-18T03:22:57;4.70;;;4.28;;
22152;SDS011;11242;50.536;12.688;2023-09-18T03:25:25;7.55;;;4.30;;
22152;SDS011;11242;50.536;12.688;2023-09-18T03:27:51;4.50;;;4.15;;
22152;SDS011;11242;50.536;12.688;2023-09-18T03:30:18;4.72;;;4.32;;
22152;SDS011;11242;50.536;12.688;2023-09-18T03:32:45;4.80;;;4.40;;
22152;SDS011;11242;50.536;12.688;2023-09-18T03:35:11;5.32;;;4.63;;
22152;SDS011;11242;50.536;12.688;2023-09-18T03:37:45;6.65;;;4.38;;
22152;SDS011;11242;50.536;12.688;2023-09-18T03:40:12;4.55;;;4.15;;
22152;SDS011;11242;50.536;12.688;2023-09-18T03:42:38;5.93;;;4.40;;
22152;SDS011;11242;50.536;12.688;2023-09-18T03:45:07;6.90;;;4.60;;
22152;SDS011;11242;50.536;12.688;2023-09-18T03:47:34;4.50;;;4.13;;
22152;SDS011;11242;50.536;12.688;2023-09-18T03:50:03;4.82;;;4.30;;
22152;SDS011;11242;50.536;12.688;2023-09-18T03:52:29;4.38;;;4.05;;
22152;SDS011;11242;50.536;12.688;2023-09-18T03:54:55;4.90;;;4.40;;
22152;SDS011;11242;50.536;12.688;2023-09-18T03:57:20;5.55;;;4.60;;
22152;SDS011;11242;50.536;12.688;2023-09-18T03:59:46;4.80;;;4.38;;
22152;SDS011;11242;50.536;12.688;2023-09-18T04:02:12;4.78;;;4.38;;
22152;SDS011;11242;50.536;12.688;2023-09-18T04:04:37;5.18;;;4.47;;
22152;SDS011;11242;50.536;12.688;2023-09-18T04:07:06;4.78;;;4.38;;
22152;SDS011;11242;50.536;12.688;2023-09-18T04:09:32;4.38;;;3.83;;
22152;SDS011;11242;50.536;12.688;2023-09-18T04:11:59;4.25;;;3.85;;
22152;SDS011;11242;50.536;12.688;2023-09-18T04:14:30;4.63;;;4.18;;
22152;SDS011;11242;50.536;12.688;2023-09-18T04:16:56;4.30;;;3.90;;
22152;SDS011;11242;50.536;12.688;2023-09-18T04:19:21;4.03;;;3.72;;
22152;SDS011;11242;50.536;12.688;2023-09-18T04:21:47;4.03;;;3.72;;
22152;SDS011;11242;50.536;12.688;2023-09-18T04:24:13;5.13;;;3.78;;
22152;SDS011;11242;50.536;12.688;2023-09-18T04:26:38;4.55;;;4.05;;
22152;SDS011;11242;50.536;12.688;2023-09-18T04:29:05;4.45;;;3.90;;
22152;SDS011;11242;50.536;12.688;2023-09-18T04:31:30;4.60;;;3.97;;
22152;SDS011;11242;50.536;12.688;2023-09-18T04:33:57;5.20;;;3.67;;
22152;SDS011;11242;50.536;12.688;2023-09-18T04:36:22;3.97;;;3.40;;
22152;SDS011;11242;50.536;12.688;2023-09-18T04:38:49;4.80;;;3.92;;
22152;SDS011;11242;50.536;12.688;2023-09-18T04:41:16;3.97;;;3.58;;
22152;SDS011;11242;50.536;12.688;2023-09-18T04:43:41;3.55;;;3.25;;
22152;SDS011;11242;50.536;12.688;2023-09-18T04:46:10;4.07;;;3.67;;
22152;SDS011;11242;50.536;12.688;2023-09-18T04:48:35;4.00;;;3.60;;
22152;SDS011;11242;50.536;12.688;2023-09-18T04:51:02;3.67;;;3.40;;
22152;SDS011;11242;50.536;12.688;2023-09-18T04:53:32;3.60;;;3.30;;
22152;SDS011;11242;50.536;12.688;2023-09-18T04:55:57;3.65;;;3.35;;
22152;SDS011;11242;50.536;12.688;2023-09-18T04:58:24;3.70;;;3.22;;
22152;SDS011;11242;50.536;12.688;2023-09-18T05:00:57;3.67;;;3.38;;
22152;SDS011;11242;50.536;12.688;2023-09-18T05:03:25;3.58;;;3.33;;
22152;SDS011;11242;50.536;12.688;2023-09-18T05:05:54;7.63;;;3.70;;
22152;SDS011;11242;50.536;12.688;2023-09-18T05:08:20;4.25;;;3.40;;
22152;SDS011;11242;50.536;12.688;2023-09-18T05:10:46;3.58;;;3.28;;
22152;SDS011;11242;50.536;12.688;2023-09-18T05:13:12;4.38;;;3.97;;
22152;SDS011;11242;50.536;12.688;2023-09-18T05:15:38;5.93;;;3.58;;
22152;SDS011;11242;50.536;12.688;2023-09-18T05:18:04;4.90;;;3.20;;
22152;SDS011;11242;50.536;12.688;2023-09-18T05:20:30;3.92;;;3.13;;
22152;SDS011;11242;50.536;12.688;2023-09-18T05:22:57;3.50;;;3.20;;
22152;SDS011;11242;50.536;12.688;2023-09-18T05:25:26;3.20;;;2.90;;
22152;SDS011;11242;50.536;12.688;2023-09-18T05:27:54;3.40;;;3.10;;
22152;SDS011;11242;50.536;12.688;2023-09-18T05:30:26;3.95;;;3.38;;
22152;SDS011;11242;50.536;12.688;2023-09-18T05:32:56;3.97;;;3.58;;
22152;SDS011;11242;50.536;12.688;2023-09-18T05:35:22;3.40;;;3.10;;
22152;SDS011;11242;50.536;12.688;2023-09-18T05:37:48;4.40;;;4.00;;
22152;SDS011;11242;50.536;12.688;2023-09-18T05:40:16;3.50;;;3.20;;
22152;SDS011;11242;50.536;12.688;2023-09-18T05:42:43;4.32;;;3.13;;
22152;SDS011;11242;50.536;12.688;2023-09-18T05:45:09;4.43;;;3.15;;
22152;SDS011;11242;50.536;12.688;2023-09-18T05:47:36;5.22;;;3.80;;
22152;SDS011;11242;50.536;12.688;2023-09-18T05:50:03;4.13;;;3.20;;
22152;SDS011;11242;50.536;12.688;2023-09-18T05:52:32;4.10;;;3.33;;
22152;SDS011;11242;50.536;12.688;2023-09-18T05:54:59;3.70;;;3.40;;
22152;SDS011;11242;50.536;12.688;2023-09-18T05:57:25;3.78;;;3.00;;
22152;SDS011;11242;50.536;12.688;2023-09-18T05:59:52;3.65;;;2.90;;
22152;SDS011;11242;50.536;12.688;2023-09-18T06:02:18;3.00;;;2.80;;
22152;SDS011;11242;50.536;12.688;2023-09-18T06:04:45;3.40;;;3.10;;
22152;SDS011;11242;50.536;12.688;2023-09-18T06:07:11;3.40;;;3.17;;
22152;SDS011;11242;50.536;12.688;2023-09-18T06:09:38;3.28;;;3.03;;
22152;SDS011;11242;50.536;12.688;2023-09-18T06:12:04;3.55;;;3.20;;
22152;SDS011;11242;50.536;12.688;2023-09-18T06:14:30;4.82;;;2.88;;
22152;SDS011;11242;50.536;12.688;2023-09-18T06:16:56;3.00;;;2.80;;
22152;SDS011;11242;50.536;12.688;2023-09-18T06:19:22;2.95;;;2.78;;
22152;SDS011;11242;50.536;12.688;2023-09-18T06:21:48;2.90;;;2.70;;
22152;SDS011;11242;50.536;12.688;2023-09-18T06:24:13;3.13;;;2.83;;
22152;SDS011;11242;50.536;12.688;2023-09-18T06:26:39;3.50;;;3.20;;
22152;SDS011;11242;50.536;12.688;2023-09-18T06:29:05;4.60;;;3.00;;
22152;SDS011;11242;50.536;12.688;2023-09-18T06:31:31;3.10;;;2.90;;
22152;SDS011;11242;50.536;12.688;2023-09-18T06:33:56;4.32;;;3.53;;
22152;SDS011;11242;50.536;12.688;2023-09-18T06:36:22;2.80;;;2.60;;
22152;SDS011;11242;50.536;12.688;2023-09-18T06:38:48;3.75;;;3.42;;
22152;SDS011;11242;50.536;12.688;2023-09-18T06:41:13;2.90;;;2.70;;
22152;SDS011;11242;50.536;12.688;2023-09-18T06:43:39;3.67;;;3.00;;
22152;SDS011;11242;50.536;12.688;2023-09-18T06:46:06;3.58;;;2.55;;
22152;SDS011;11242;50.536;12.688;2023-09-18T06:48:32;3.10;;;2.90;;
22152;SDS011;11242;50.536;12.688;2023-09-18T06:50:58;2.95;;;2.75;;
22152;SDS011;11242;50.536;12.688;2023-09-18T06:53:27;2.90;;;2.70;;
22152;SDS011;11242;50.536;12.688;2023-09-18T06:55:53;3.08;;;2.88;;
22152;SDS011;11242;50.536;12.688;2023-09-18T06:58:19;3.80;;;2.88;;
22152;SDS011;11242;50.536;12.688;2023-09-18T07:00:45;7.93;;;2.75;;
22152;SDS011;11242;50.536;12.688;2023-09-18T07:03:11;3.13;;;2.83;;
22152;SDS011;11242;50.536;12.688;2023-09-18T07:05:37;2.88;;;2.67;;
22152;SDS011;11242;50.536;12.688;2023-09-18T07:08:05;3.25;;;2.97;;
22152;SDS011;11242;50.536;12.688;2023-09-18T07:10:34;5.07;;;2.70;;
22152;SDS011;11242;50.536;12.688;2023-09-18T07:13:00;2.97;;;2.70;;
22152;SDS011;11242;50.536;12.688;2023-09-18T07:15:26;3.55;;;3.25;;
22152;SDS011;11242;50.536;12.688;2023-09-18T07:17:51;3.30;;;3.03;;
22152;SDS011;11242;50.536;12.688;2023-09-18T07:20:17;3.25;;;3.05;;
22152;SDS011;11242;50.536;12.688;2023-09-18T07:22:45;3.38;;;3.08;;
22152;SDS011;11242;50.536;12.688;2023-09-18T07:25:12;3.05;;;2.85;;
22152;SDS011;11242;50.536;12.688;2023-09-18T07:27:37;3.55;;;3.05;;
22152;SDS011;11242;50.536;12.688;2023-09-18T07:30:05;2.97;;;2.78;;
22152;SDS011;11242;50.536;12.688;2023-09-18T07:32:31;2.90;;;2.70;;
22152;SDS011;11242;50.536;12.688;2023-09-18T07:34:57;2.80;;;2.63;;
22152;SDS011;11242;50.536;12.688;2023-09-18T07:37:23;3.13;;;2.83;;
22152;SDS011;11242;50.536;12.688;2023-09-18T07:39:49;3.33;;;3.00;;
22152;SDS011;11242;50.536;12.688;2023-09-18T07:42:14;3.17;;;2.85;;
22152;SDS011;11242;50.536;12.688;2023-09-18T07:44:40;3.00;;;2.70;;
22152;SDS011;11242;50.536;12.688;2023-09-18T07:47:05;2.80;;;2.60;;
22152;SDS011;11242;50.536;12.688;2023-09-18T07:49:31;2.72;;;2.53;;
22152;SDS011;11242;50.536;12.688;2023-09-18T07:51:57;2.95;;;2.75;;
22152;SDS011;11242;50.536;12.688;2023-09-18T07:54:22;3.85;;;2.83;;
22152;SDS011;11242;50.536;12.688;2023-09-18T07:56:48;3.28;;;2.97;;
22152;SDS011;11242;50.536;12.688;2023-09-18T07:59:14;3.58;;;2.70;;
22152;SDS011;11242;50.536;12.688;2023-09-18T08:01:40;3.50;;;2.50;;
22152;SDS011;11242;50.536;12.688;2023-09-18T08:04:06;2.80;;;2.50;;
22152;SDS011;11242;50.536;12.688;2023-09-18T08:06:31;2.70;;;2.50;;
22152;SDS011;11242;50.536;12.688;2023-09-18T08:08:57;3.20;;;2.90;;
22152;SDS011;11242;50.536;12.688;2023-09-18T08:11:23;2.75;;;2.42;;
22152;SDS011;11242;50.536;12.688;2023-09-18T08:13:48;4.00;;;2.70;;
22152;SDS011;11242;50.536;12.688;2023-09-18T08:16:14;2.50;;;2.30;;
22152;SDS011;11242;50.536;12.688;2023-09-18T08:18:40;3.35;;;2.65;;
22152;SDS011;11242;50.536;12.688;2023-09-18T08:21:07;4.50;;;2.47;;
22152;SDS011;11242;50.536;12.688;2023-09-18T08:23:34;3.22;;;2.72;;
22152;SDS011;11242;50.536;12.688;2023-09-18T08:26:01;3.38;;;3.00;;
22152;SDS011;11242;50.536;12.688;2023-09-18T08:28:27;3.30;;;2.80;;
22152;SDS011;11242;50.536;12.688;2023-09-18T08:30:53;3.20;;;2.88;;
22152;SDS011;11242;50.536;12.688;2023-09-18T08:33:19;5.70;;;2.92;;
22152;SDS011;11242;50.536;12.688;2023-09-18T08:35:45;3.00;;;2.80;;
22152;SDS011;11242;50.536;12.688;2023-09-18T08:38:12;3.55;;;3.05;;
22152;SDS011;11242;50.536;12.688;2023-09-18T08:40:40;2.92;;;2.72;;
22152;SDS011;11242;50.536;12.688;2023-09-18T08:43:07;3.20;;;2.90;;
22152;SDS011;11242;50.536;12.688;2023-09-18T08:45:56;3.10;;;2.80;;
22152;SDS011;11242;50.536;12.688;2023-09-18T08:48:27;4.03;;;2.97;;
22152;SDS011;11242;50.536;12.688;2023-09-18T08:51:00;4.53;;;2.90;;
22152;SDS011;11242;50.536;12.688;2023-09-18T08:53:30;3.40;;;3.10;;
22152;SDS011;11242;50.536;12.688;2023-09-18T08:56:00;4.03;;;3.03;;
22152;SDS011;11242;50.536;12.688;2023-09-18T08:58:33;3.75;;;3.05;;
22152;SDS011;11242;50.536;12.688;2023-09-18T09:01:02;3.17;;;2.97;;
22152;SDS011;11242;50.536;12.688;2023-09-18T09:03:29;5.70;;;3.10;;
22152;SDS011;11242;50.536;12.688;2023-09-18T09:05:55;3.65;;;3.30;;
22152;SDS011;11242;50.536;12.688;2023-09-18T09:08:21;3.88;;;3.15;;
22152;SDS011;11242;50.536;12.688;2023-09-18T09:10:48;6.75;;;3.05;;
22152;SDS011;11242;50.536;12.688;2023-09-18T09:13:13;3.60;;;3.30;;
22152;SDS011;11242;50.536;12.688;2023-09-18T09:15:46;3.70;;;3.40;;
22152;SDS011;11242;50.536;12.688;2023-09-18T09:18:12;3.88;;;3.35;;
22152;SDS011;11242;50.536;12.688;2023-09-18T09:20:40;4.25;;;3.20;;
22152;SDS011;11242;50.536;12.688;2023-09-18T09:23:08;4.05;;;3.70;;
22152;SDS011;11242;50.536;12.688;2023-09-18T09:25:34;3.60;;;3.38;;
22152;SDS011;11242;50.536;12.688;2023-09-18T09:28:05;5.25;;;3.47;;
22152;SDS011;11242;50.536;12.688;2023-09-18T09:30:33;3.80;;;3.50;;
22152;SDS011;11242;50.536;12.688;2023-09-18T09:32:59;4.22;;;3.60;;
22152;SDS011;11242;50.536;12.688;2023-09-18T09:35:31;5.07;;;3.75;;
22152;SDS011;11242;50.536;12.688;2023-09-18T09:38:00;4.28;;;3.58;;
22152;SDS011;11242;50.536;12.688;2023-09-18T09:40:32;4.20;;;3.80;;
22152;SDS011;11242;50.536;12.688;2023-09-18T09:43:00;4.18;;;3.55;;
22152;SDS011;11242;50.536;12.688;2023-09-18T09:45:27;3.88;;;3.58;;
22152;SDS011;11242;50.536;12.688;2023-09-18T09:47:55;6.82;;;3.63;;
22152;SDS011;11242;50.536;12.688;2023-09-18T09:50:25;3.70;;;3.40;;
22152;SDS011;11242;50.536;12.688;2023-09-18T09:52:51;4.10;;;3.70;;
22152;SDS011;11242;50.536;12.688;2023-09-18T09:57:53;4.43;;;3.83;;
22152;SDS011;11242;50.536;12.688;2023-09-18T10:00:23;4.20;;;3.80;;
22152;SDS011;11242;50.536;12.688;2023-09-18T10:03:04;4.30;;;3.78;;
22152;SDS011;11242;50.536;12.688;2023-09-18T10:05:32;5.22;;;4.05;;
22152;SDS011;11242;50.536;12.688;2023-09-18T10:08:02;4.13;;;3.75;;
22152;SDS011;11242;50.536;12.688;2023-09-18T10:10:35;5.63;;;4.43;;
22152;SDS011;11242;50.536;12.688;2023-09-18T10:13:05;5.50;;;4.18;;
22152;SDS011;11242;50.536;12.688;2023-09-18T10:15:35;3.90;;;3.60;;
22152;SDS011;11242;50.536;12.688;2023-09-18T10:18:04;3.90;;;3.60;;
22152;SDS011;11242;50.536;12.688;2023-09-18T10:20:37;5.15;;;4.07;;
22152;SDS011;11242;50.536;12.688;2023-09-18T10:23:09;4.80;;;4.05;;
22152;SDS011;11242;50.536;12.688;2023-09-18T10:25:48;6.88;;;3.95;;
22152;SDS011;11242;50.536;12.688;2023-09-18T10:28:20;7.35;;;3.83;;
22152;SDS011;11242;50.536;12.688;2023-09-18T10:30:48;5.43;;;3.47;;
22152;SDS011;11242;50.536;12.688;2023-09-18T10:33:16;5.47;;;3.70;;
22152;SDS011;11242;50.536;12.688;2023-09-18T10:35:42;6.97;;;3.80;;
22152;SDS011;11242;50.536;12.688;2023-09-18T10:38:08;8.50;;;3.85;;
22152;SDS011;11242;50.536;12.688;2023-09-18T10:40:35;6.60;;;3.78;;
22152;SDS011;11242;50.536;12.688;2023-09-18T10:43:02;9.85;;;3.65;;
22152;SDS011;11242;50.536;12.688;2023-09-18T10:45:30;11.05;;;4.07;;
22152;SDS011;11242;50.536;12.688;2023-09-18T10:47:57;6.68;;;3.50;;
22152;SDS011;11242;50.536;12.688;2023-09-18T10:50:24;8.20;;;3.60;;
22152;SDS011;11242;50.536;12.688;2023-09-18T10:52:51;7.72;;;3.20;;
22152;SDS011;11242;50.536;12.688;2023-09-18T10:55:24;9.48;;;3.45;;
22152;SDS011;11242;50.536;12.688;2023-09-18T10:57:51;10.00;;;3.90;;
22152;SDS011;11242;50.536;12.688;2023-09-18T11:00:24;8.68;;;3.70;;
22152;SDS011;11242;50.536;12.688;2023-09-18T11:02:52;10.48;;;3.22;;
22152;SDS011;11242;50.536;12.688;2023-09-18T11:05:32;8.65;;;3.95;;
22152;SDS011;11242;50.536;12.688;2023-09-18T11:10:59;9.40;;;3.25;;
22152;SDS011;11242;50.536;12.688;2023-09-18T11:18:53;8.43;;;3.30;;
22152;SDS011;11242;50.536;12.688;2023-09-18T11:21:26;8.70;;;3.30;;
22152;SDS011;11242;50.536;12.688;2023-09-18T11:23:59;12.23;;;3.50;;
22152;SDS011;11242;50.536;12.688;2023-09-18T11:26:37;9.75;;;3.70;;
22152;SDS011;11242;50.536;12.688;2023-09-18T11:29:10;8.88;;;3.70;;
22152;SDS011;11242;50.536;12.688;2023-09-18T11:31:52;9.82;;;3.22;;
22152;SDS011;11242;50.536;12.688;2023-09-18T11:36:48;13.45;;;4.13;;
22152;SDS011;11242;50.536;12.688;2023-09-18T11:39:32;9.98;;;3.35;;
22152;SDS011;11242;50.536;12.688;2023-09-18T11:42:20;11.23;;;3.70;;
22152;SDS011;11242;50.536;12.688;2023-09-18T11:44:52;12.00;;;3.38;;
22152;SDS011;11242;50.536;12.688;2023-09-18T11:47:18;8.93;;;3.15;;
22152;SDS011;11242;50.536;12.688;2023-09-18T11:49:56;8.98;;;3.30;;
22152;SDS011;11242;50.536;12.688;2023-09-18T11:52:27;10.45;;;3.25;;
22152;SDS011;11242;50.536;12.688;2023-09-18T11:54:58;10.90;;;3.55;;
22152;SDS011;11242;50.536;12.688;2023-09-18T11:57:24;8.43;;;3.45;;
22152;SDS011;11242;50.536;12.688;2023-09-18T11:59:50;10.90;;;4.13;;
22152;SDS011;11242;50.536;12.688;2023-09-18T12:02:27;9.18;;;3.80;;
22152;SDS011;11242;50.536;12.688;2023-09-18T12:04:59;9.02;;;3.72;;
22152;SDS011;11242;50.536;12.688;2023-09-18T12:07:31;8.57;;;3.78;;
22152;SDS011;11242;50.536;12.688;2023-09-18T12:09:57;13.00;;;4.18;;
22152;SDS011;11242;50.536;12.688;2023-09-18T12:12:22;6.53;;;3.70;;
22152;SDS011;11242;50.536;12.688;2023-09-18T12:14:48;9.75;;;4.15;;
22152;SDS011;11242;50.536;12.688;2023-09-18T12:17:17;7.35;;;4.00;;
22152;SDS011;11242;50.536;12.688;2023-09-18T12:19:52;18.95;;;4.53;;
22152;SDS011;11242;50.536;12.688;2023-09-18T12:22:25;7.07;;;4.00;;
22152;SDS011;11242;50.536;12.688;2023-09-18T12:24:52;14.38;;;4.35;;
22152;SDS011;11242;50.536;12.688;2023-09-18T12:27:18;8.02;;;4.18;;
22152;SDS011;11242;50.536;12.688;2023-09-18T12:29:44;7.45;;;3.72;;
22152;SDS011;11242;50.536;12.688;2023-09-18T12:32:09;8.07;;;3.85;;
22152;SDS011;11242;50.536;12.688;2023-09-18T12:34:40;9.95;;;4.05;;
22152;SDS011;11242;50.536;12.688;2023-09-18T12:37:07;11.38;;;4.05;;
22152;SDS011;11242;50.536;12.688;2023-09-18T12:39:36;6.68;;;3.65;;
22152;SDS011;11242;50.536;12.688;2023-09-18T12:42:01;7.90;;;3.92;;
22152;SDS011;11242;50.536;12.688;2023-09-18T12:44:28;6.45;;;3.70;;
22152;SDS011;11242;50.536;12.688;2023-09-18T12:46:54;8.07;;;4.10;;
22152;SDS011;11242;50.536;12.688;2023-09-18T12:49:21;6.18;;;3.25;;
22152;SDS011;11242;50.536;12.688;2023-09-18T12:51:56;10.38;;;3.30;;
22152;SDS011;11242;50.536;12.688;2023-09-18T12:54:42;8.02;;;3.22;;
22152;SDS011;11242;50.536;12.688;2023-09-18T12:57:19;8.05;;;3.00;;
22152;SDS011;11242;50.536;12.688;2023-09-18T12:59:45;7.90;;;2.72;;
22152;SDS011;11242;50.536;12.688;2023-09-18T13:02:15;6.85;;;2.45;;
22152;SDS011;11242;50.536;12.688;2023-09-18T13:04:50;7.63;;;2.58;;
22152;SDS011;11242;50.536;12.688;2023-09-18T13:07:17;4.10;;;2.25;;
22152;SDS011;11242;50.536;12.688;2023-09-18T13:09:43;7.07;;;2.35;;
22152;SDS011;11242;50.536;12.688;2023-09-18T13:12:40;7.78;;;2.90;;
22152;SDS011;11242;50.536;12.688;2023-09-18T13:15:27;6.80;;;2.67;;
22152;SDS011;11242;50.536;12.688;2023-09-18T13:17:55;8.82;;;2.70;;
22152;SDS011;11242;50.536;12.688;2023-09-18T13:20:24;9.15;;;2.53;;
22152;SDS011;11242;50.536;12.688;2023-09-18T13:22:55;7.97;;;2.60;;
22152;SDS011;11242;50.536;12.688;2023-09-18T13:25:23;10.68;;;2.65;;
22152;SDS011;11242;50.536;12.688;2023-09-18T13:27:53;5.75;;;2.80;;
22152;SDS011;11242;50.536;12.688;2023-09-18T13:30:19;5.90;;;3.00;;
22152;SDS011;11242;50.536;12.688;2023-09-18T13:32:47;6.93;;;2.45;;
22152;SDS011;11242;50.536;12.688;2023-09-18T13:35:13;5.45;;;3.10;;
22152;SDS011;11242;50.536;12.688;2023-09-18T13:37:40;5.65;;;2.90;;
22152;SDS011;11242;50.536;12.688;2023-09-18T13:40:06;6.75;;;2.83;;
22152;SDS011;11242;50.536;12.688;2023-09-18T13:42:34;8.48;;;2.95;;
22152;SDS011;11242;50.536;12.688;2023-09-18T13:45:00;6.18;;;2.97;;
22152;SDS011;11242;50.536;12.688;2023-09-18T13:47:27;6.53;;;3.00;;
22152;SDS011;11242;50.536;12.688;2023-09-18T13:49:53;5.65;;;2.78;;
22152;SDS011;11242;50.536;12.688;2023-09-18T13:52:22;6.78;;;3.40;;
22152;SDS011;11242;50.536;12.688;2023-09-18T13:54:48;5.07;;;2.72;;
22152;SDS011;11242;50.536;12.688;2023-09-18T13:57:18;8.82;;;3.00;;
22152;SDS011;11242;50.536;12.688;2023-09-18T13:59:45;6.70;;;2.78;;
22152;SDS011;11242;50.536;12.688;2023-09-18T14:02:12;6.82;;;2.83;;
22152;SDS011;11242;50.536;12.688;2023-09-18T14:04:38;6.40;;;2.65;;
22152;SDS011;11242;50.536;12.688;2023-09-18T14:07:07;4.30;;;2.42;;
22152;SDS011;11242;50.536;12.688;2023-09-18T14:09:34;5.47;;;3.08;;
22152;SDS011;11242;50.536;12.688;2023-09-18T14:12:00;10.75;;;3.58;;
22152;SDS011;11242;50.536;12.688;2023-09-18T14:14:29;4.50;;;2.70;;
22152;SDS011;11242;50.536;12.688;2023-09-18T14:16:54;6.70;;;3.17;;
22152;SDS011;11242;50.536;12.688;2023-09-18T14:19:20;4.30;;;3.10;;
22152;SDS011;11242;50.536;12.688;2023-09-18T14:21:47;4.35;;;2.72;;
22152;SDS011;11242;50.536;12.688;2023-09-18T14:24:14;6.80;;;2.60;;
22152;SDS011;11242;50.536;12.688;2023-09-18T14:26:43;8.25;;;2.90;;
22152;SDS011;11242;50.536;12.688;2023-09-18T14:29:09;5.32;;;3.00;;
22152;SDS011;11242;50.536;12.688;2023-09-18T14:31:38;9.25;;;3.15;;
22152;SDS011;11242;50.536;12.688;2023-09-18T14:34:04;9.43;;;2.92;;
22152;SDS011;11242;50.536;12.688;2023-09-18T14:36:33;6.85;;;3.22;;
22152;SDS011;11242;50.536;12.688;2023-09-18T14:39:00;7.22;;;3.00;;
22152;SDS011;11242;50.536;12.688;2023-09-18T14:41:26;7.95;;;3.10;;
22152;SDS011;11242;50.536;12.688;2023-09-18T14:43:52;7.72;;;2.97;;
22152;SDS011;11242;50.536;12.688;2023-09-18T14:46:18;4.43;;;2.60;;
22152;SDS011;11242;50.536;12.688;2023-09-18T14:48:45;6.40;;;3.00;;
22152;SDS011;11242;50.536;12.688;2023-09-18T14:51:10;6.50;;;3.28;;